sensor_id;sensor_type;location;lat;lon;timestamp;P1;durP1;ratioP1;P2;durP2;ratioP2
83145;SDS011;73037;51.110;4.706;2023-10-08T00:04:47;4.93;;;2.42;;
83145;SDS011;73037;51.110;4.706;2023-10-08T00:07:15;8.05;;;2.72;;
83145;SDS011;73037;51.110;4.706;2023-10-08T00:09:46;5.47;;;2.50;;
83145;SDS011;73037;51.110;4.706;2023-10-08T00:14:38;5.78;;;2.70;;
83145;SDS011;73037;51.110;4.706;2023-10-08T00:17:09;5.72;;;2.50;;
83145;SDS011;73037;51.110;4.706;2023-10-08T00:19:36;7.03;;;2.22;;
83145;SDS011;73037;51.110;4.706;2023-10-08T00:22:03;7.57;;;2.97;;
83145;SDS011;73037;51.110;4.706;2023-10-08T00:24:31;4.07;;;2.50;;
83145;SDS011;73037;51.110;4.706;2023-10-08T00:29:28;5.60;;;2.55;;
83145;SDS011;73037;51.110;4.706;2023-10-08T00:31:56;5.03;;;2.70;;
83145;SDS011;73037;51.110;4.706;2023-10-08T00:34:22;5.80;;;2.38;;
83145;SDS011;73037;51.110;4.706;2023-10-08T00:36:54;7.90;;;2.60;;
83145;SDS011;73037;51.110;4.706;2023-10-08T00:39:20;7.55;;;2.50;;
83145;SDS011;73037;51.110;4.706;2023-10-08T00:41:49;4.88;;;2.58;;
83145;SDS011;73037;51.110;4.706;2023-10-08T00:44:23;11.48;;;2.70;;
83145;SDS011;73037;51.110;4.706;2023-10-08T00:46:54;8.27;;;2.70;;
83145;SDS011;73037;51.110;4.706;2023-10-08T00:49:26;5.53;;;2.50;;
83145;SDS011;73037;51.110;4.706;2023-10-08T00:52:08;5.95;;;2.40;;
83145;SDS011;73037;51.110;4.706;2023-10-08T00:54:35;7.43;;;2.60;;
83145;SDS011;73037;51.110;4.706;2023-10-08T00:57:26;6.03;;;2.55;;
83145;SDS011;73037;51.110;4.706;2023-10-08T00:59:54;4.80;;;2.38;;
83145;SDS011;73037;51.110;4.706;2023-10-08T01:02:21;5.88;;;2.58;;
83145;SDS011;73037;51.110;4.706;2023-10-08T01:04:53;7.68;;;3.13;;
83145;SDS011;73037;51.110;4.706;2023-10-08T01:07:20;9.55;;;2.50;;
83145;SDS011;73037;51.110;4.706;2023-10-08T01:12:17;6.07;;;2.50;;
83145;SDS011;73037;51.110;4.706;2023-10-08T01:14:56;4.32;;;2.45;;
83145;SDS011;73037;51.110;4.706;2023-10-08T01:17:41;4.68;;;2.28;;
83145;SDS011;73037;51.110;4.706;2023-10-08T01:20:16;7.00;;;3.35;;
83145;SDS011;73037;51.110;4.706;2023-10-08T01:23:09;5.90;;;2.80;;
83145;SDS011;73037;51.110;4.706;2023-10-08T01:25:39;5.63;;;2.60;;
83145;SDS011;73037;51.110;4.706;2023-10-08T01:28:07;5.95;;;2.65;;
83145;SDS011;73037;51.110;4.706;2023-10-08T01:30:47;4.75;;;2.30;;
83145;SDS011;73037;51.110;4.706;2023-10-08T01:33:18;5.70;;;2.40;;
83145;SDS011;73037;51.110;4.706;2023-10-08T01:35:46;4.18;;;2.22;;
83145;SDS011;73037;51.110;4.706;2023-10-08T01:38:13;5.25;;;2.17;;
83145;SDS011;73037;51.110;4.706;2023-10-08T01:40:41;4.70;;;2.15;;
83145;SDS011;73037;51.110;4.706;2023-10-08T01:43:07;4.43;;;2.10;;
83145;SDS011;73037;51.110;4.706;2023-10-08T01:45:37;5.97;;;2.20;;
83145;SDS011;73037;51.110;4.706;2023-10-08T01:48:08;5.95;;;2.47;;
83145;SDS011;73037;51.110;4.706;2023-10-08T01:50:37;3.47;;;2.00;;
83145;SDS011;73037;51.110;4.706;2023-10-08T01:53:03;5.38;;;2.17;;
83145;SDS011;73037;51.110;4.706;2023-10-08T01:55:32;7.53;;;2.58;;
83145;SDS011;73037;51.110;4.706;2023-10-08T01:58:10;6.45;;;2.60;;
83145;SDS011;73037;51.110;4.706;2023-10-08T02:00:41;8.93;;;2.40;;
83145;SDS011;73037;51.110;4.706;2023-10-08T02:03:10;4.07;;;2.10;;
83145;SDS011;73037;51.110;4.706;2023-10-08T02:05:37;7.15;;;2.13;;
83145;SDS011;73037;51.110;4.706;2023-10-08T02:08:07;5.95;;;2.08;;
83145;SDS011;73037;51.110;4.706;2023-10-08T02:10:36;5.45;;;1.90;;
83145;SDS011;73037;51.110;4.706;2023-10-08T02:13:07;8.90;;;2.53;;
83145;SDS011;73037;51.110;4.706;2023-10-08T02:15:40;5.47;;;2.20;;
83145;SDS011;73037;51.110;4.706;2023-10-08T02:18:08;4.65;;;2.30;;
83145;SDS011;73037;51.110;4.706;2023-10-08T02:20:34;6.32;;;2.30;;
83145;SDS011;73037;51.110;4.706;2023-10-08T02:23:00;4.45;;;2.20;;
83145;SDS011;73037;51.110;4.706;2023-10-08T02:25:26;6.13;;;1.90;;
83145;SDS011;73037;51.110;4.706;2023-10-08T02:27:52;4.35;;;2.30;;
83145;SDS011;73037;51.110;4.706;2023-10-08T02:30:18;5.82;;;2.58;;
83145;SDS011;73037;51.110;4.706;2023-10-08T02:32:44;6.40;;;2.45;;
83145;SDS011;73037;51.110;4.706;2023-10-08T02:35:11;4.50;;;2.28;;
83145;SDS011;73037;51.110;4.706;2023-10-08T02:37:38;5.38;;;2.10;;
83145;SDS011;73037;51.110;4.706;2023-10-08T02:40:07;4.82;;;2.10;;
83145;SDS011;73037;51.110;4.706;2023-10-08T02:42:42;4.57;;;2.08;;
83145;SDS011;73037;51.110;4.706;2023-10-08T02:45:09;4.13;;;2.30;;
83145;SDS011;73037;51.110;4.706;2023-10-08T02:47:40;5.90;;;2.40;;
83145;SDS011;73037;51.110;4.706;2023-10-08T02:50:07;7.93;;;2.35;;
83145;SDS011;73037;51.110;4.706;2023-10-08T02:52:34;5.47;;;2.20;;
83145;SDS011;73037;51.110;4.706;2023-10-08T02:55:00;7.28;;;2.30;;
83145;SDS011;73037;51.110;4.706;2023-10-08T02:57:25;5.28;;;2.50;;
83145;SDS011;73037;51.110;4.706;2023-10-08T02:59:54;4.05;;;2.20;;
83145;SDS011;73037;51.110;4.706;2023-10-08T03:02:20;5.47;;;2.72;;
83145;SDS011;73037;51.110;4.706;2023-10-08T03:04:47;7.22;;;2.30;;
83145;SDS011;73037;51.110;4.706;2023-10-08T03:07:18;4.45;;;2.17;;
83145;SDS011;73037;51.110;4.706;2023-10-08T03:09:49;4.60;;;2.28;;
83145;SDS011;73037;51.110;4.706;2023-10-08T03:12:18;5.82;;;2.40;;
83145;SDS011;73037;51.110;4.706;2023-10-08T03:14:44;6.40;;;2.50;;
83145;SDS011;73037;51.110;4.706;2023-10-08T03:17:26;5.18;;;2.70;;
83145;SDS011;73037;51.110;4.706;2023-10-08T03:19:55;5.40;;;2.45;;
83145;SDS011;73037;51.110;4.706;2023-10-08T03:22:44;6.82;;;2.30;;
83145;SDS011;73037;51.110;4.706;2023-10-08T03:27:42;6.32;;;2.20;;
83145;SDS011;73037;51.110;4.706;2023-10-08T03:30:08;4.45;;;2.13;;
83145;SDS011;73037;51.110;4.706;2023-10-08T03:32:43;6.20;;;2.30;;
83145;SDS011;73037;51.110;4.706;2023-10-08T03:35:20;5.20;;;2.25;;
83145;SDS011;73037;51.110;4.706;2023-10-08T03:37:53;5.95;;;2.42;;
83145;SDS011;73037;51.110;4.706;2023-10-08T03:40:19;6.40;;;2.10;;
83145;SDS011;73037;51.110;4.706;2023-10-08T03:42:51;5.80;;;2.17;;
83145;SDS011;73037;51.110;4.706;2023-10-08T03:45:20;6.10;;;2.55;;
83145;SDS011;73037;51.110;4.706;2023-10-08T03:48:05;7.45;;;2.28;;
83145;SDS011;73037;51.110;4.706;2023-10-08T03:50:31;4.53;;;2.35;;
83145;SDS011;73037;51.110;4.706;2023-10-08T03:53:08;5.75;;;2.85;;
83145;SDS011;73037;51.110;4.706;2023-10-08T03:55:38;4.10;;;2.40;;
83145;SDS011;73037;51.110;4.706;2023-10-08T03:58:09;8.90;;;2.65;;
83145;SDS011;73037;51.110;4.706;2023-10-08T04:00:45;5.30;;;2.45;;
83145;SDS011;73037;51.110;4.706;2023-10-08T04:03:11;4.43;;;2.28;;
83145;SDS011;73037;51.110;4.706;2023-10-08T04:05:37;8.27;;;2.70;;
83145;SDS011;73037;51.110;4.706;2023-10-08T04:08:39;7.63;;;2.33;;
83145;SDS011;73037;51.110;4.706;2023-10-08T04:11:08;4.40;;;2.28;;
83145;SDS011;73037;51.110;4.706;2023-10-08T04:13:55;6.10;;;2.67;;
83145;SDS011;73037;51.110;4.706;2023-10-08T04:16:24;5.57;;;2.38;;
83145;SDS011;73037;51.110;4.706;2023-10-08T04:18:53;7.35;;;3.25;;
83145;SDS011;73037;51.110;4.706;2023-10-08T04:21:21;7.57;;;2.63;;
83145;SDS011;73037;51.110;4.706;2023-10-08T04:23:52;6.40;;;2.40;;
83145;SDS011;73037;51.110;4.706;2023-10-08T04:26:21;5.32;;;2.50;;
83145;SDS011;73037;51.110;4.706;2023-10-08T04:28:55;5.80;;;2.92;;
83145;SDS011;73037;51.110;4.706;2023-10-08T04:31:27;7.30;;;2.30;;
83145;SDS011;73037;51.110;4.706;2023-10-08T04:33:58;5.40;;;2.65;;
83145;SDS011;73037;51.110;4.706;2023-10-08T04:36:25;6.82;;;2.67;;
83145;SDS011;73037;51.110;4.706;2023-10-08T04:38:51;11.43;;;3.33;;
83145;SDS011;73037;51.110;4.706;2023-10-08T04:41:20;9.63;;;3.15;;
83145;SDS011;73037;51.110;4.706;2023-10-08T04:43:53;6.00;;;3.00;;
83145;SDS011;73037;51.110;4.706;2023-10-08T04:46:20;6.20;;;2.42;;
83145;SDS011;73037;51.110;4.706;2023-10-08T04:49:04;4.97;;;2.30;;
83145;SDS011;73037;51.110;4.706;2023-10-08T04:51:33;6.13;;;2.33;;
83145;SDS011;73037;51.110;4.706;2023-10-08T04:54:10;5.68;;;2.22;;
83145;SDS011;73037;51.110;4.706;2023-10-08T04:56:41;6.80;;;2.78;;
83145;SDS011;73037;51.110;4.706;2023-10-08T04:59:07;5.18;;;3.00;;
83145;SDS011;73037;51.110;4.706;2023-10-08T05:01:36;7.55;;;2.75;;
83145;SDS011;73037;51.110;4.706;2023-10-08T05:04:21;7.38;;;2.90;;
83145;SDS011;73037;51.110;4.706;2023-10-08T05:06:52;4.55;;;2.40;;
83145;SDS011;73037;51.110;4.706;2023-10-08T05:09:42;7.75;;;2.70;;
83145;SDS011;73037;51.110;4.706;2023-10-08T05:12:37;5.82;;;2.53;;
83145;SDS011;73037;51.110;4.706;2023-10-08T05:15:03;6.55;;;3.00;;
83145;SDS011;73037;51.110;4.706;2023-10-08T05:17:42;6.10;;;2.83;;
83145;SDS011;73037;51.110;4.706;2023-10-08T05:20:17;5.32;;;2.50;;
83145;SDS011;73037;51.110;4.706;2023-10-08T05:23:17;7.82;;;2.55;;
83145;SDS011;73037;51.110;4.706;2023-10-08T05:25:50;6.70;;;2.67;;
83145;SDS011;73037;51.110;4.706;2023-10-08T05:28:34;8.73;;;2.80;;
83145;SDS011;73037;51.110;4.706;2023-10-08T05:31:27;8.05;;;2.80;;
83145;SDS011;73037;51.110;4.706;2023-10-08T05:34:08;6.05;;;3.03;;
83145;SDS011;73037;51.110;4.706;2023-10-08T05:36:43;6.65;;;2.45;;
83145;SDS011;73037;51.110;4.706;2023-10-08T05:39:24;5.18;;;2.83;;
83145;SDS011;73037;51.110;4.706;2023-10-08T05:41:53;6.57;;;2.88;;
83145;SDS011;73037;51.110;4.706;2023-10-08T05:44:39;6.93;;;2.67;;
83145;SDS011;73037;51.110;4.706;2023-10-08T05:47:32;6.93;;;2.85;;
83145;SDS011;73037;51.110;4.706;2023-10-08T05:49:58;7.22;;;2.80;;
83145;SDS011;73037;51.110;4.706;2023-10-08T05:52:43;5.97;;;2.67;;
83145;SDS011;73037;51.110;4.706;2023-10-08T05:55:29;5.57;;;2.72;;
83145;SDS011;73037;51.110;4.706;2023-10-08T05:58:12;8.98;;;2.90;;
83145;SDS011;73037;51.110;4.706;2023-10-08T06:00:39;4.82;;;2.95;;
83145;SDS011;73037;51.110;4.706;2023-10-08T06:03:28;7.05;;;2.97;;
83145;SDS011;73037;51.110;4.706;2023-10-08T06:06:17;7.22;;;2.60;;
83145;SDS011;73037;51.110;4.706;2023-10-08T06:08:43;7.10;;;2.80;;
83145;SDS011;73037;51.110;4.706;2023-10-08T06:11:17;6.53;;;2.58;;
83145;SDS011;73037;51.110;4.706;2023-10-08T06:14:03;8.10;;;3.00;;
83145;SDS011;73037;51.110;4.706;2023-10-08T06:16:38;6.63;;;3.10;;
83145;SDS011;73037;51.110;4.706;2023-10-08T06:19:09;6.57;;;2.90;;
83145;SDS011;73037;51.110;4.706;2023-10-08T06:21:36;8.57;;;3.05;;
83145;SDS011;73037;51.110;4.706;2023-10-08T06:24:04;7.55;;;3.10;;
83145;SDS011;73037;51.110;4.706;2023-10-08T06:26:41;5.15;;;3.20;;
83145;SDS011;73037;51.110;4.706;2023-10-08T06:29:10;6.97;;;3.00;;
83145;SDS011;73037;51.110;4.706;2023-10-08T06:31:51;9.50;;;3.10;;
83145;SDS011;73037;51.110;4.706;2023-10-08T06:34:21;6.10;;;3.00;;
83145;SDS011;73037;51.110;4.706;2023-10-08T06:36:50;7.28;;;3.05;;
83145;SDS011;73037;51.110;4.706;2023-10-08T06:39:22;7.47;;;3.28;;
83145;SDS011;73037;51.110;4.706;2023-10-08T06:41:58;7.10;;;3.05;;
83145;SDS011;73037;51.110;4.706;2023-10-08T06:44:25;9.05;;;3.47;;
83145;SDS011;73037;51.110;4.706;2023-10-08T06:46:52;7.00;;;2.72;;
83145;SDS011;73037;51.110;4.706;2023-10-08T06:49:19;6.78;;;3.33;;
83145;SDS011;73037;51.110;4.706;2023-10-08T06:51:49;8.23;;;2.88;;
83145;SDS011;73037;51.110;4.706;2023-10-08T06:54:15;6.90;;;2.67;;
83145;SDS011;73037;51.110;4.706;2023-10-08T06:56:43;9.38;;;3.28;;
83145;SDS011;73037;51.110;4.706;2023-10-08T06:59:14;6.63;;;3.13;;
83145;SDS011;73037;51.110;4.706;2023-10-08T07:01:42;6.45;;;2.95;;
83145;SDS011;73037;51.110;4.706;2023-10-08T07:04:11;7.25;;;3.40;;
83145;SDS011;73037;51.110;4.706;2023-10-08T07:06:38;9.13;;;3.45;;
83145;SDS011;73037;51.110;4.706;2023-10-08T07:09:05;7.13;;;3.17;;
83145;SDS011;73037;51.110;4.706;2023-10-08T07:11:32;4.90;;;2.80;;
83145;SDS011;73037;51.110;4.706;2023-10-08T07:14:03;6.18;;;2.72;;
83145;SDS011;73037;51.110;4.706;2023-10-08T07:16:33;5.75;;;2.95;;
83145;SDS011;73037;51.110;4.706;2023-10-08T07:18:59;7.60;;;3.13;;
83145;SDS011;73037;51.110;4.706;2023-10-08T07:21:30;7.30;;;2.95;;
83145;SDS011;73037;51.110;4.706;2023-10-08T07:24:10;6.43;;;3.00;;
83145;SDS011;73037;51.110;4.706;2023-10-08T07:26:40;5.63;;;3.13;;
83145;SDS011;73037;51.110;4.706;2023-10-08T07:29:11;6.35;;;3.22;;
83145;SDS011;73037;51.110;4.706;2023-10-08T07:31:41;5.35;;;2.95;;
83145;SDS011;73037;51.110;4.706;2023-10-08T07:34:13;6.50;;;3.22;;
83145;SDS011;73037;51.110;4.706;2023-10-08T07:36:42;9.25;;;3.20;;
83145;SDS011;73037;51.110;4.706;2023-10-08T07:39:12;14.23;;;5.50;;
83145;SDS011;73037;51.110;4.706;2023-10-08T07:41:51;6.68;;;3.13;;
83145;SDS011;73037;51.110;4.706;2023-10-08T07:44:22;8.45;;;3.45;;
83145;SDS011;73037;51.110;4.706;2023-10-08T07:46:49;6.03;;;3.13;;
83145;SDS011;73037;51.110;4.706;2023-10-08T07:49:16;7.18;;;3.50;;
83145;SDS011;73037;51.110;4.706;2023-10-08T07:51:42;7.05;;;3.30;;
83145;SDS011;73037;51.110;4.706;2023-10-08T07:54:16;8.23;;;3.50;;
83145;SDS011;73037;51.110;4.706;2023-10-08T07:56:47;8.60;;;3.58;;
83145;SDS011;73037;51.110;4.706;2023-10-08T07:59:14;6.10;;;3.35;;
83145;SDS011;73037;51.110;4.706;2023-10-08T08:01:41;7.35;;;3.22;;
83145;SDS011;73037;51.110;4.706;2023-10-08T08:04:11;5.47;;;3.15;;
83145;SDS011;73037;51.110;4.706;2023-10-08T08:06:48;7.30;;;3.47;;
83145;SDS011;73037;51.110;4.706;2023-10-08T08:09:15;7.47;;;3.40;;
83145;SDS011;73037;51.110;4.706;2023-10-08T08:11:45;8.45;;;3.85;;
83145;SDS011;73037;51.110;4.706;2023-10-08T08:14:12;7.03;;;3.42;;
83145;SDS011;73037;51.110;4.706;2023-10-08T08:16:42;6.90;;;3.55;;
83145;SDS011;73037;51.110;4.706;2023-10-08T08:19:14;8.52;;;3.80;;
83145;SDS011;73037;51.110;4.706;2023-10-08T08:21:49;6.80;;;3.65;;
83145;SDS011;73037;51.110;4.706;2023-10-08T08:24:17;6.43;;;3.80;;
83145;SDS011;73037;51.110;4.706;2023-10-08T08:26:56;8.55;;;4.00;;
83145;SDS011;73037;51.110;4.706;2023-10-08T08:29:37;7.22;;;3.80;;
83145;SDS011;73037;51.110;4.706;2023-10-08T08:32:13;7.88;;;3.90;;
83145;SDS011;73037;51.110;4.706;2023-10-08T08:34:44;7.38;;;4.35;;
83145;SDS011;73037;51.110;4.706;2023-10-08T08:37:11;10.48;;;4.65;;
83145;SDS011;73037;51.110;4.706;2023-10-08T08:39:37;10.27;;;4.80;;
83145;SDS011;73037;51.110;4.706;2023-10-08T08:42:03;9.75;;;4.55;;
83145;SDS011;73037;51.110;4.706;2023-10-08T08:44:33;12.45;;;4.43;;
83145;SDS011;73037;51.110;4.706;2023-10-08T08:47:04;10.90;;;4.38;;
83145;SDS011;73037;51.110;4.706;2023-10-08T08:49:35;9.52;;;4.63;;
83145;SDS011;73037;51.110;4.706;2023-10-08T08:52:04;9.98;;;4.80;;
83145;SDS011;73037;51.110;4.706;2023-10-08T08:54:30;10.88;;;4.57;;
83145;SDS011;73037;51.110;4.706;2023-10-08T08:57:05;10.95;;;4.35;;
83145;SDS011;73037;51.110;4.706;2023-10-08T08:59:38;10.82;;;4.10;;
83145;SDS011;73037;51.110;4.706;2023-10-08T09:02:21;10.70;;;5.15;;
83145;SDS011;73037;51.110;4.706;2023-10-08T09:04:48;9.05;;;5.18;;
83145;SDS011;73037;51.110;4.706;2023-10-08T09:07:14;8.75;;;4.72;;
83145;SDS011;73037;51.110;4.706;2023-10-08T09:09:46;14.07;;;5.15;;
83145;SDS011;73037;51.110;4.706;2023-10-08T09:12:15;12.27;;;5.05;;
83145;SDS011;73037;51.110;4.706;2023-10-08T09:14:42;9.48;;;4.82;;
83145;SDS011;73037;51.110;4.706;2023-10-08T09:17:09;9.30;;;4.70;;
83145;SDS011;73037;51.110;4.706;2023-10-08T09:24:36;10.95;;;5.10;;
83145;SDS011;73037;51.110;4.706;2023-10-08T09:27:07;10.02;;;4.57;;
83145;SDS011;73037;51.110;4.706;2023-10-08T09:29:39;11.65;;;5.20;;
83145;SDS011;73037;51.110;4.706;2023-10-08T09:32:08;10.45;;;4.93;;
83145;SDS011;73037;51.110;4.706;2023-10-08T09:34:35;12.02;;;5.28;;
83145;SDS011;73037;51.110;4.706;2023-10-08T09:37:01;13.88;;;5.93;;
83145;SDS011;73037;51.110;4.706;2023-10-08T09:41:55;11.15;;;5.55;;
83145;SDS011;73037;51.110;4.706;2023-10-08T09:44:23;12.43;;;5.80;;
83145;SDS011;73037;51.110;4.706;2023-10-08T09:47:02;13.88;;;6.32;;
83145;SDS011;73037;51.110;4.706;2023-10-08T09:49:30;14.68;;;6.20;;
83145;SDS011;73037;51.110;4.706;2023-10-08T09:52:04;15.00;;;6.00;;
83145;SDS011;73037;51.110;4.706;2023-10-08T09:57:29;13.00;;;6.18;;
83145;SDS011;73037;51.110;4.706;2023-10-08T09:59:55;10.98;;;6.03;;
83145;SDS011;73037;51.110;4.706;2023-10-08T10:02:22;14.73;;;6.15;;
83145;SDS011;73037;51.110;4.706;2023-10-08T10:04:52;12.73;;;6.00;;
83145;SDS011;73037;51.110;4.706;2023-10-08T10:07:20;11.90;;;6.47;;
83145;SDS011;73037;51.110;4.706;2023-10-08T10:09:49;17.13;;;6.70;;
83145;SDS011;73037;51.110;4.706;2023-10-08T10:12:20;12.68;;;6.32;;
83145;SDS011;73037;51.110;4.706;2023-10-08T10:14:55;13.43;;;6.28;;
83145;SDS011;73037;51.110;4.706;2023-10-08T10:17:25;11.00;;;5.65;;
83145;SDS011;73037;51.110;4.706;2023-10-08T10:19:54;11.18;;;5.80;;
83145;SDS011;73037;51.110;4.706;2023-10-08T10:22:27;15.93;;;5.85;;
83145;SDS011;73037;51.110;4.706;2023-10-08T10:25:00;11.80;;;6.20;;
83145;SDS011;73037;51.110;4.706;2023-10-08T10:27:39;15.90;;;6.70;;
83145;SDS011;73037;51.110;4.706;2023-10-08T10:30:33;16.90;;;6.20;;
83145;SDS011;73037;51.110;4.706;2023-10-08T10:33:02;13.27;;;6.18;;
83145;SDS011;73037;51.110;4.706;2023-10-08T10:35:30;16.10;;;6.43;;
83145;SDS011;73037;51.110;4.706;2023-10-08T10:37:58;13.80;;;6.18;;
83145;SDS011;73037;51.110;4.706;2023-10-08T10:40:28;14.98;;;6.30;;
83145;SDS011;73037;51.110;4.706;2023-10-08T10:43:04;15.68;;;6.50;;
83145;SDS011;73037;51.110;4.706;2023-10-08T10:45:32;12.70;;;5.88;;
83145;SDS011;73037;51.110;4.706;2023-10-08T10:48:04;14.23;;;6.85;;
83145;SDS011;73037;51.110;4.706;2023-10-08T10:50:46;15.73;;;5.72;;
83145;SDS011;73037;51.110;4.706;2023-10-08T10:53:20;12.38;;;6.47;;
83145;SDS011;73037;51.110;4.706;2023-10-08T10:55:45;14.23;;;6.18;;
83145;SDS011;73037;51.110;4.706;2023-10-08T10:58:25;11.32;;;5.88;;
83145;SDS011;73037;51.110;4.706;2023-10-08T11:00:51;12.55;;;6.22;;
83145;SDS011;73037;51.110;4.706;2023-10-08T11:03:32;14.93;;;6.22;;
83145;SDS011;73037;51.110;4.706;2023-10-08T11:06:00;12.15;;;6.15;;
83145;SDS011;73037;51.110;4.706;2023-10-08T11:08:31;17.20;;;6.15;;
83145;SDS011;73037;51.110;4.706;2023-10-08T11:11:00;14.45;;;6.18;;
83145;SDS011;73037;51.110;4.706;2023-10-08T11:13:32;13.95;;;6.13;;
83145;SDS011;73037;51.110;4.706;2023-10-08T11:16:06;13.55;;;6.70;;
83145;SDS011;73037;51.110;4.706;2023-10-08T11:18:34;10.55;;;5.60;;
83145;SDS011;73037;51.110;4.706;2023-10-08T11:21:05;14.52;;;6.00;;
83145;SDS011;73037;51.110;4.706;2023-10-08T11:23:45;15.27;;;6.88;;
83145;SDS011;73037;51.110;4.706;2023-10-08T11:26:17;15.95;;;5.95;;
83145;SDS011;73037;51.110;4.706;2023-10-08T11:28:44;16.45;;;6.50;;
83145;SDS011;73037;51.110;4.706;2023-10-08T11:31:13;17.40;;;6.60;;
83145;SDS011;73037;51.110;4.706;2023-10-08T11:33:41;13.68;;;6.47;;
83145;SDS011;73037;51.110;4.706;2023-10-08T11:36:08;14.00;;;6.75;;
83145;SDS011;73037;51.110;4.706;2023-10-08T11:38:44;16.08;;;7.05;;
83145;SDS011;73037;51.110;4.706;2023-10-08T11:41:15;16.30;;;6.82;;
83145;SDS011;73037;51.110;4.706;2023-10-08T11:46:26;14.35;;;5.32;;
83145;SDS011;73037;51.110;4.706;2023-10-08T11:49:05;13.27;;;5.25;;
83145;SDS011;73037;51.110;4.706;2023-10-08T11:51:34;12.23;;;5.70;;
83145;SDS011;73037;51.110;4.706;2023-10-08T11:54:01;13.00;;;5.63;;
83145;SDS011;73037;51.110;4.706;2023-10-08T11:56:30;11.18;;;5.40;;
83145;SDS011;73037;51.110;4.706;2023-10-08T11:58:57;12.88;;;5.07;;
83145;SDS011;73037;51.110;4.706;2023-10-08T12:01:23;13.52;;;5.57;;
83145;SDS011;73037;51.110;4.706;2023-10-08T12:06:16;13.98;;;4.82;;
83145;SDS011;73037;51.110;4.706;2023-10-08T12:08:46;10.57;;;4.72;;
83145;SDS011;73037;51.110;4.706;2023-10-08T12:11:18;9.50;;;4.63;;
83145;SDS011;73037;51.110;4.706;2023-10-08T12:13:44;9.93;;;4.97;;
83145;SDS011;73037;51.110;4.706;2023-10-08T12:16:19;12.90;;;4.80;;
83145;SDS011;73037;51.110;4.706;2023-10-08T12:18:48;10.82;;;4.93;;
83145;SDS011;73037;51.110;4.706;2023-10-08T12:21:18;11.93;;;5.00;;
83145;SDS011;73037;51.110;4.706;2023-10-08T12:23:47;9.02;;;4.80;;
83145;SDS011;73037;51.110;4.706;2023-10-08T12:26:14;13.80;;;4.57;;
83145;SDS011;73037;51.110;4.706;2023-10-08T12:28:44;13.82;;;4.47;;
83145;SDS011;73037;51.110;4.706;2023-10-08T12:31:12;12.35;;;4.85;;
83145;SDS011;73037;51.110;4.706;2023-10-08T12:33:40;10.60;;;4.72;;
83145;SDS011;73037;51.110;4.706;2023-10-08T12:36:08;14.75;;;5.20;;
83145;SDS011;73037;51.110;4.706;2023-10-08T12:38:38;16.00;;;5.07;;
83145;SDS011;73037;51.110;4.706;2023-10-08T12:41:06;15.43;;;5.15;;
83145;SDS011;73037;51.110;4.706;2023-10-08T12:43:41;15.32;;;5.25;;
83145;SDS011;73037;51.110;4.706;2023-10-08T12:46:17;14.02;;;5.18;;
83145;SDS011;73037;51.110;4.706;2023-10-08T12:48:44;14.20;;;4.95;;
83145;SDS011;73037;51.110;4.706;2023-10-08T12:51:13;11.32;;;4.82;;
83145;SDS011;73037;51.110;4.706;2023-10-08T12:53:40;11.35;;;5.10;;
83145;SDS011;73037;51.110;4.706;2023-10-08T12:56:06;15.52;;;5.93;;
83145;SDS011;73037;51.110;4.706;2023-10-08T12:58:40;17.70;;;5.05;;
83145;SDS011;73037;51.110;4.706;2023-10-08T13:01:09;11.93;;;4.63;;
83145;SDS011;73037;51.110;4.706;2023-10-08T13:03:39;10.27;;;4.38;;
83145;SDS011;73037;51.110;4.706;2023-10-08T13:06:13;12.57;;;4.80;;
83145;SDS011;73037;51.110;4.706;2023-10-08T13:08:54;11.93;;;4.30;;
83145;SDS011;73037;51.110;4.706;2023-10-08T13:11:21;12.23;;;4.38;;
83145;SDS011;73037;51.110;4.706;2023-10-08T13:13:51;12.93;;;4.28;;
83145;SDS011;73037;51.110;4.706;2023-10-08T13:16:18;9.68;;;4.22;;
83145;SDS011;73037;51.110;4.706;2023-10-08T13:18:46;12.32;;;4.95;;
83145;SDS011;73037;51.110;4.706;2023-10-08T13:21:12;11.93;;;4.55;;
83145;SDS011;73037;51.110;4.706;2023-10-08T13:23:38;9.98;;;4.93;;
83145;SDS011;73037;51.110;4.706;2023-10-08T13:26:04;10.77;;;4.45;;
83145;SDS011;73037;51.110;4.706;2023-10-08T13:28:32;12.20;;;4.45;;
83145;SDS011;73037;51.110;4.706;2023-10-08T13:31:07;9.70;;;4.20;;
83145;SDS011;73037;51.110;4.706;2023-10-08T13:33:36;10.85;;;4.55;;
83145;SDS011;73037;51.110;4.706;2023-10-08T13:36:08;14.52;;;5.40;;
83145;SDS011;73037;51.110;4.706;2023-10-08T13:38:37;11.32;;;4.65;;
83145;SDS011;73037;51.110;4.706;2023-10-08T13:41:03;10.52;;;4.90;;
83145;SDS011;73037;51.110;4.706;2023-10-08T13:43:31;12.27;;;4.90;;
83145;SDS011;73037;51.110;4.706;2023-10-08T13:46:04;10.55;;;4.80;;
83145;SDS011;73037;51.110;4.706;2023-10-08T13:48:38;10.77;;;4.78;;
83145;SDS011;73037;51.110;4.706;2023-10-08T13:51:05;8.70;;;4.22;;
83145;SDS011;73037;51.110;4.706;2023-10-08T13:53:36;11.00;;;4.30;;
83145;SDS011;73037;51.110;4.706;2023-10-08T13:56:02;10.05;;;4.65;;
83145;SDS011;73037;51.110;4.706;2023-10-08T13:58:32;9.98;;;4.82;;
83145;SDS011;73037;51.110;4.706;2023-10-08T14:01:00;15.23;;;4.82;;
83145;SDS011;73037;51.110;4.706;2023-10-08T14:03:28;8.65;;;4.32;;
83145;SDS011;73037;51.110;4.706;2023-10-08T14:05:59;10.88;;;4.50;;
83145;SDS011;73037;51.110;4.706;2023-10-08T14:08:29;10.10;;;4.65;;
83145;SDS011;73037;51.110;4.706;2023-10-08T14:10:56;12.40;;;4.38;;
83145;SDS011;73037;51.110;4.706;2023-10-08T14:13:27;8.23;;;4.32;;
83145;SDS011;73037;51.110;4.706;2023-10-08T14:16:00;10.35;;;4.35;;
83145;SDS011;73037;51.110;4.706;2023-10-08T14:18:34;10.40;;;4.40;;
83145;SDS011;73037;51.110;4.706;2023-10-08T14:21:06;9.65;;;4.60;;
83145;SDS011;73037;51.110;4.706;2023-10-08T14:23:35;11.32;;;4.60;;
83145;SDS011;73037;51.110;4.706;2023-10-08T14:26:05;9.93;;;4.95;;
83145;SDS011;73037;51.110;4.706;2023-10-08T14:28:36;12.45;;;4.68;;
83145;SDS011;73037;51.110;4.706;2023-10-08T14:31:23;8.10;;;4.35;;
83145;SDS011;73037;51.110;4.706;2023-10-08T14:33:49;12.48;;;4.60;;
83145;SDS011;73037;51.110;4.706;2023-10-08T14:36:30;10.15;;;4.80;;
83145;SDS011;73037;51.110;4.706;2023-10-08T14:39:15;10.38;;;4.32;;
83145;SDS011;73037;51.110;4.706;2023-10-08T14:42:00;9.25;;;4.28;;
83145;SDS011;73037;51.110;4.706;2023-10-08T14:44:44;10.00;;;4.72;;
83145;SDS011;73037;51.110;4.706;2023-10-08T14:47:11;10.35;;;4.15;;
83145;SDS011;73037;51.110;4.706;2023-10-08T14:49:38;11.02;;;4.53;;
83145;SDS011;73037;51.110;4.706;2023-10-08T14:52:04;8.75;;;4.22;;
83145;SDS011;73037;51.110;4.706;2023-10-08T14:54:30;11.02;;;4.72;;
83145;SDS011;73037;51.110;4.706;2023-10-08T14:56:59;9.93;;;4.13;;
83145;SDS011;73037;51.110;4.706;2023-10-08T14:59:27;8.50;;;4.30;;
83145;SDS011;73037;51.110;4.706;2023-10-08T15:01:55;8.52;;;4.30;;
83145;SDS011;73037;51.110;4.706;2023-10-08T15:04:21;10.82;;;4.90;;
83145;SDS011;73037;51.110;4.706;2023-10-08T15:06:47;11.38;;;4.43;;
83145;SDS011;73037;51.110;4.706;2023-10-08T15:09:14;9.68;;;4.43;;
83145;SDS011;73037;51.110;4.706;2023-10-08T15:11:47;8.23;;;4.50;;
83145;SDS011;73037;51.110;4.706;2023-10-08T15:14:13;9.70;;;4.47;;
83145;SDS011;73037;51.110;4.706;2023-10-08T15:16:40;8.95;;;4.20;;
83145;SDS011;73037;51.110;4.706;2023-10-08T15:19:09;11.18;;;4.55;;
83145;SDS011;73037;51.110;4.706;2023-10-08T15:21:37;10.88;;;4.90;;
83145;SDS011;73037;51.110;4.706;2023-10-08T15:24:04;9.85;;;3.92;;
83145;SDS011;73037;51.110;4.706;2023-10-08T15:26:34;8.43;;;4.22;;
83145;SDS011;73037;51.110;4.706;2023-10-08T15:28:59;11.35;;;4.57;;
83145;SDS011;73037;51.110;4.706;2023-10-08T15:31:27;10.23;;;4.47;;
83145;SDS011;73037;51.110;4.706;2023-10-08T15:33:53;10.00;;;4.78;;
83145;SDS011;73037;51.110;4.706;2023-10-08T15:36:19;8.15;;;4.45;;